sensor_id;sensor_type;location;lat;lon;timestamp;P1;durP1;ratioP1;P2;durP2;ratioP2
67861;SDS011;54665;51.462;6.698;2023-02-04T00:00:49;12.80;;;2.40;;
67861;SDS011;54665;51.462;6.698;2023-02-04T00:03:18;14.60;;;1.53;;
67861;SDS011;54665;51.462;6.698;2023-02-04T00:06:00;12.55;;;1.65;;
67861;SDS011;54665;51.462;6.698;2023-02-04T00:08:33;15.80;;;2.05;;
67861;SDS011;54665;51.462;6.698;2023-02-04T00:10:58;10.03;;;1.70;;
67861;SDS011;54665;51.462;6.698;2023-02-04T00:13:39;12.70;;;1.90;;
67861;SDS011;54665;51.462;6.698;2023-02-04T00:16:11;21.10;;;2.22;;
67861;SDS011;54665;51.462;6.698;2023-02-04T00:18:42;14.18;;;2.58;;
67861;SDS011;54665;51.462;6.698;2023-02-04T00:21:07;8.70;;;1.27;;
67861;SDS011;54665;51.462;6.698;2023-02-04T00:23:33;9.43;;;1.23;;
67861;SDS011;54665;51.462;6.698;2023-02-04T00:26:01;16.08;;;2.13;;
67861;SDS011;54665;51.462;6.698;2023-02-04T00:28:27;10.18;;;1.52;;
67861;SDS011;54665;51.462;6.698;2023-02-04T00:31:01;12.30;;;2.13;;
67861;SDS011;54665;51.462;6.698;2023-02-04T00:33:37;14.68;;;2.03;;
67861;SDS011;54665;51.462;6.698;2023-02-04T00:36:07;14.00;;;1.87;;
67861;SDS011;54665;51.462;6.698;2023-02-04T00:38:36;11.27;;;1.58;;
67861;SDS011;54665;51.462;6.698;2023-02-04T00:41:15;18.98;;;2.05;;
67861;SDS011;54665;51.462;6.698;2023-02-04T00:43:44;18.63;;;2.10;;
67861;SDS011;54665;51.462;6.698;2023-02-04T00:46:09;17.23;;;2.50;;
67861;SDS011;54665;51.462;6.698;2023-02-04T00:48:43;14.98;;;2.13;;
67861;SDS011;54665;51.462;6.698;2023-02-04T00:51:29;12.55;;;1.83;;
67861;SDS011;54665;51.462;6.698;2023-02-04T00:54:07;12.87;;;1.77;;
67861;SDS011;54665;51.462;6.698;2023-02-04T00:56:38;16.60;;;2.35;;
67861;SDS011;54665;51.462;6.698;2023-02-04T00:59:11;10.60;;;1.90;;
67861;SDS011;54665;51.462;6.698;2023-02-04T01:01:58;15.95;;;1.85;;
67861;SDS011;54665;51.462;6.698;2023-02-04T01:04:24;15.63;;;2.15;;
67861;SDS011;54665;51.462;6.698;2023-02-04T01:07:00;10.63;;;1.70;;
67861;SDS011;54665;51.462;6.698;2023-02-04T01:09:29;18.80;;;2.10;;
67861;SDS011;54665;51.462;6.698;2023-02-04T01:12:00;15.07;;;2.40;;
67861;SDS011;54665;51.462;6.698;2023-02-04T01:14:39;16.23;;;2.00;;
67861;SDS011;54665;51.462;6.698;2023-02-04T01:17:17;15.48;;;2.10;;
67861;SDS011;54665;51.462;6.698;2023-02-04T01:19:45;12.60;;;2.22;;
67861;SDS011;54665;51.462;6.698;2023-02-04T01:22:13;13.77;;;2.08;;
67861;SDS011;54665;51.462;6.698;2023-02-04T01:24:46;14.07;;;2.17;;
67861;SDS011;54665;51.462;6.698;2023-02-04T01:27:42;16.33;;;2.20;;
67861;SDS011;54665;51.462;6.698;2023-02-04T01:30:09;16.90;;;2.28;;
67861;SDS011;54665;51.462;6.698;2023-02-04T01:32:36;13.65;;;1.90;;
67861;SDS011;54665;51.462;6.698;2023-02-04T01:35:15;17.10;;;2.33;;
67861;SDS011;54665;51.462;6.698;2023-02-04T01:37:41;18.67;;;2.73;;
67861;SDS011;54665;51.462;6.698;2023-02-04T01:40:12;17.38;;;2.40;;
67861;SDS011;54665;51.462;6.698;2023-02-04T01:42:38;12.32;;;2.22;;
67861;SDS011;54665;51.462;6.698;2023-02-04T01:45:06;10.88;;;1.88;;
67861;SDS011;54665;51.462;6.698;2023-02-04T01:47:32;14.70;;;2.10;;
67861;SDS011;54665;51.462;6.698;2023-02-04T01:50:05;12.43;;;2.00;;
67861;SDS011;54665;51.462;6.698;2023-02-04T01:52:41;14.35;;;2.50;;
67861;SDS011;54665;51.462;6.698;2023-02-04T01:55:18;17.08;;;2.38;;
67861;SDS011;54665;51.462;6.698;2023-02-04T01:57:45;20.42;;;2.00;;
67861;SDS011;54665;51.462;6.698;2023-02-04T02:00:23;15.65;;;2.30;;
67861;SDS011;54665;51.462;6.698;2023-02-04T02:03:01;15.93;;;2.27;;
67861;SDS011;54665;51.462;6.698;2023-02-04T02:05:35;13.73;;;2.28;;
67861;SDS011;54665;51.462;6.698;2023-02-04T02:08:11;11.00;;;1.80;;
67861;SDS011;54665;51.462;6.698;2023-02-04T02:10:46;16.85;;;2.13;;
67861;SDS011;54665;51.462;6.698;2023-02-04T02:13:29;13.20;;;2.25;;
67861;SDS011;54665;51.462;6.698;2023-02-04T02:15:58;18.10;;;1.63;;
67861;SDS011;54665;51.462;6.698;2023-02-04T02:18:27;21.20;;;2.35;;
67861;SDS011;54665;51.462;6.698;2023-02-04T02:21:01;15.13;;;2.15;;
67861;SDS011;54665;51.462;6.698;2023-02-04T02:23:48;19.17;;;2.35;;
67861;SDS011;54665;51.462;6.698;2023-02-04T02:26:23;15.70;;;2.38;;
67861;SDS011;54665;51.462;6.698;2023-02-04T02:29:00;18.73;;;2.20;;
67861;SDS011;54665;51.462;6.698;2023-02-04T02:31:27;19.55;;;2.30;;
67861;SDS011;54665;51.462;6.698;2023-02-04T02:36:41;21.87;;;2.53;;
67861;SDS011;54665;51.462;6.698;2023-02-04T02:39:10;12.82;;;2.00;;
67861;SDS011;54665;51.462;6.698;2023-02-04T02:41:44;18.02;;;2.63;;
67861;SDS011;54665;51.462;6.698;2023-02-04T02:44:18;18.95;;;2.38;;
67861;SDS011;54665;51.462;6.698;2023-02-04T02:46:47;15.27;;;2.30;;
67861;SDS011;54665;51.462;6.698;2023-02-04T02:49:22;12.33;;;1.93;;
67861;SDS011;54665;51.462;6.698;2023-02-04T02:52:02;14.45;;;2.15;;
67861;SDS011;54665;51.462;6.698;2023-02-04T02:54:37;14.68;;;2.13;;
67861;SDS011;54665;51.462;6.698;2023-02-04T02:57:15;16.98;;;2.47;;
67861;SDS011;54665;51.462;6.698;2023-02-04T02:59:45;12.23;;;1.95;;
67861;SDS011;54665;51.462;6.698;2023-02-04T03:02:21;17.10;;;2.30;;
67861;SDS011;54665;51.462;6.698;2023-02-04T03:04:53;19.67;;;2.17;;
67861;SDS011;54665;51.462;6.698;2023-02-04T03:07:35;14.13;;;2.08;;
67861;SDS011;54665;51.462;6.698;2023-02-04T03:10:01;12.55;;;1.83;;
67861;SDS011;54665;51.462;6.698;2023-02-04T03:12:30;17.07;;;2.17;;
67861;SDS011;54665;51.462;6.698;2023-02-04T03:15:02;16.88;;;2.25;;
67861;SDS011;54665;51.462;6.698;2023-02-04T03:17:44;16.73;;;2.38;;
67861;SDS011;54665;51.462;6.698;2023-02-04T03:20:36;17.63;;;2.53;;
67861;SDS011;54665;51.462;6.698;2023-02-04T03:23:02;16.40;;;1.77;;
67861;SDS011;54665;51.462;6.698;2023-02-04T03:25:30;17.70;;;2.53;;
67861;SDS011;54665;51.462;6.698;2023-02-04T03:28:20;17.35;;;2.05;;
67861;SDS011;54665;51.462;6.698;2023-02-04T03:31:16;16.58;;;2.10;;
67861;SDS011;54665;51.462;6.698;2023-02-04T03:33:43;18.85;;;2.35;;
67861;SDS011;54665;51.462;6.698;2023-02-04T03:36:14;15.57;;;1.90;;
67861;SDS011;54665;51.462;6.698;2023-02-04T03:38:49;20.63;;;2.40;;
67861;SDS011;54665;51.462;6.698;2023-02-04T03:41:24;17.90;;;2.38;;
67861;SDS011;54665;51.462;6.698;2023-02-04T03:43:52;16.17;;;2.00;;
67861;SDS011;54665;51.462;6.698;2023-02-04T03:46:17;10.80;;;1.90;;
67861;SDS011;54665;51.462;6.698;2023-02-04T03:48:58;17.65;;;2.30;;
67861;SDS011;54665;51.462;6.698;2023-02-04T03:51:29;14.60;;;1.88;;
67861;SDS011;54665;51.462;6.698;2023-02-04T03:54:00;17.07;;;2.57;;
67861;SDS011;54665;51.462;6.698;2023-02-04T03:56:33;14.05;;;1.70;;
67861;SDS011;54665;51.462;6.698;2023-02-04T03:59:04;17.37;;;2.33;;
67861;SDS011;54665;51.462;6.698;2023-02-04T04:01:32;11.23;;;1.92;;
67861;SDS011;54665;51.462;6.698;2023-02-04T04:03:58;14.80;;;2.17;;
67861;SDS011;54665;51.462;6.698;2023-02-04T04:06:29;16.08;;;1.95;;
67861;SDS011;54665;51.462;6.698;2023-02-04T04:08:58;12.82;;;2.15;;
67861;SDS011;54665;51.462;6.698;2023-02-04T04:11:38;17.17;;;2.10;;
67861;SDS011;54665;51.462;6.698;2023-02-04T04:14:11;10.52;;;1.88;;
67861;SDS011;54665;51.462;6.698;2023-02-04T04:16:52;14.73;;;2.30;;
67861;SDS011;54665;51.462;6.698;2023-02-04T04:22:19;15.55;;;1.80;;
67861;SDS011;54665;51.462;6.698;2023-02-04T04:24:52;16.77;;;2.23;;
67861;SDS011;54665;51.462;6.698;2023-02-04T04:27:22;20.88;;;2.13;;
67861;SDS011;54665;51.462;6.698;2023-02-04T04:30:01;18.73;;;1.73;;
67861;SDS011;54665;51.462;6.698;2023-02-04T04:32:32;13.02;;;2.30;;
67861;SDS011;54665;51.462;6.698;2023-02-04T04:35:02;13.48;;;2.40;;
67861;SDS011;54665;51.462;6.698;2023-02-04T04:37:39;12.98;;;1.80;;
67861;SDS011;54665;51.462;6.698;2023-02-04T04:40:16;17.30;;;2.50;;
67861;SDS011;54665;51.462;6.698;2023-02-04T04:43:01;13.10;;;2.50;;
67861;SDS011;54665;51.462;6.698;2023-02-04T04:45:42;10.55;;;1.80;;
67861;SDS011;54665;51.462;6.698;2023-02-04T04:48:07;13.90;;;2.13;;
67861;SDS011;54665;51.462;6.698;2023-02-04T04:50:36;20.23;;;2.13;;
67861;SDS011;54665;51.462;6.698;2023-02-04T04:53:09;12.67;;;2.20;;
67861;SDS011;54665;51.462;6.698;2023-02-04T04:55:56;16.08;;;2.40;;
67861;SDS011;54665;51.462;6.698;2023-02-04T04:58:23;15.30;;;2.10;;
67861;SDS011;54665;51.462;6.698;2023-02-04T05:00:55;13.20;;;2.55;;
67861;SDS011;54665;51.462;6.698;2023-02-04T05:03:25;19.50;;;2.73;;
67861;SDS011;54665;51.462;6.698;2023-02-04T05:06:09;17.48;;;2.45;;
67861;SDS011;54665;51.462;6.698;2023-02-04T05:08:44;15.32;;;2.33;;
67861;SDS011;54665;51.462;6.698;2023-02-04T05:11:43;14.93;;;2.20;;
67861;SDS011;54665;51.462;6.698;2023-02-04T05:14:19;12.35;;;2.03;;
67861;SDS011;54665;51.462;6.698;2023-02-04T05:16:58;16.77;;;2.17;;
67861;SDS011;54665;51.462;6.698;2023-02-04T05:19:31;16.42;;;2.55;;
67861;SDS011;54665;51.462;6.698;2023-02-04T05:22:05;16.13;;;2.65;;
67861;SDS011;54665;51.462;6.698;2023-02-04T05:24:37;17.90;;;2.35;;
67861;SDS011;54665;51.462;6.698;2023-02-04T05:27:13;15.13;;;2.25;;
67861;SDS011;54665;51.462;6.698;2023-02-04T05:29:44;17.27;;;2.23;;
67861;SDS011;54665;51.462;6.698;2023-02-04T05:32:22;14.55;;;2.25;;
67861;SDS011;54665;51.462;6.698;2023-02-04T05:34:47;16.83;;;2.27;;
67861;SDS011;54665;51.462;6.698;2023-02-04T05:37:23;19.92;;;2.45;;
67861;SDS011;54665;51.462;6.698;2023-02-04T05:39:51;15.30;;;2.33;;
67861;SDS011;54665;51.462;6.698;2023-02-04T05:42:22;16.35;;;2.50;;
67861;SDS011;54665;51.462;6.698;2023-02-04T05:44:52;14.60;;;2.00;;
67861;SDS011;54665;51.462;6.698;2023-02-04T05:47:28;21.67;;;2.57;;
67861;SDS011;54665;51.462;6.698;2023-02-04T05:50:09;28.05;;;2.65;;
67861;SDS011;54665;51.462;6.698;2023-02-04T05:52:38;15.60;;;2.30;;
67861;SDS011;54665;51.462;6.698;2023-02-04T05:55:06;14.45;;;2.40;;
67861;SDS011;54665;51.462;6.698;2023-02-04T05:57:39;13.60;;;2.38;;
67861;SDS011;54665;51.462;6.698;2023-02-04T06:00:20;17.63;;;2.50;;
67861;SDS011;54665;51.462;6.698;2023-02-04T06:02:53;19.02;;;2.60;;
67861;SDS011;54665;51.462;6.698;2023-02-04T06:05:19;18.33;;;2.20;;
67861;SDS011;54665;51.462;6.698;2023-02-04T06:07:54;17.58;;;2.63;;
67861;SDS011;54665;51.462;6.698;2023-02-04T06:10:30;17.25;;;2.92;;
67861;SDS011;54665;51.462;6.698;2023-02-04T06:13:01;15.30;;;2.33;;
67861;SDS011;54665;51.462;6.698;2023-02-04T06:15:42;15.65;;;2.15;;
67861;SDS011;54665;51.462;6.698;2023-02-04T06:18:18;19.20;;;3.08;;
67861;SDS011;54665;51.462;6.698;2023-02-04T06:20:50;17.00;;;2.83;;
67861;SDS011;54665;51.462;6.698;2023-02-04T06:23:18;20.17;;;2.80;;
67861;SDS011;54665;51.462;6.698;2023-02-04T06:25:44;16.92;;;2.75;;
67861;SDS011;54665;51.462;6.698;2023-02-04T06:28:15;17.00;;;2.47;;
67861;SDS011;54665;51.462;6.698;2023-02-04T06:30:48;20.47;;;3.50;;
67861;SDS011;54665;51.462;6.698;2023-02-04T06:33:27;15.70;;;2.90;;
67861;SDS011;54665;51.462;6.698;2023-02-04T06:36:04;15.98;;;2.78;;
67861;SDS011;54665;51.462;6.698;2023-02-04T06:39:00;22.88;;;2.53;;
67861;SDS011;54665;51.462;6.698;2023-02-04T06:42:13;17.10;;;2.85;;
67861;SDS011;54665;51.462;6.698;2023-02-04T06:44:56;21.90;;;2.83;;
67861;SDS011;54665;51.462;6.698;2023-02-04T06:47:27;17.08;;;2.78;;
67861;SDS011;54665;51.462;6.698;2023-02-04T06:50:05;21.05;;;2.80;;
67861;SDS011;54665;51.462;6.698;2023-02-04T06:52:40;21.38;;;2.92;;
67861;SDS011;54665;51.462;6.698;2023-02-04T06:55:15;18.02;;;2.83;;
67861;SDS011;54665;51.462;6.698;2023-02-04T06:57:54;18.63;;;2.80;;
67861;SDS011;54665;51.462;6.698;2023-02-04T07:00:26;20.50;;;3.13;;
67861;SDS011;54665;51.462;6.698;2023-02-04T07:03:06;22.13;;;2.78;;
67861;SDS011;54665;51.462;6.698;2023-02-04T07:05:37;18.13;;;2.40;;
67861;SDS011;54665;51.462;6.698;2023-02-04T07:08:23;17.58;;;2.80;;
67861;SDS011;54665;51.462;6.698;2023-02-04T07:11:04;18.17;;;2.53;;
67861;SDS011;54665;51.462;6.698;2023-02-04T07:13:47;18.33;;;2.70;;
67861;SDS011;54665;51.462;6.698;2023-02-04T07:19:00;16.80;;;2.63;;
67861;SDS011;54665;51.462;6.698;2023-02-04T07:21:37;18.52;;;3.05;;
67861;SDS011;54665;51.462;6.698;2023-02-04T07:24:08;19.50;;;2.97;;
67861;SDS011;54665;51.462;6.698;2023-02-04T07:26:46;18.20;;;2.85;;
67861;SDS011;54665;51.462;6.698;2023-02-04T07:29:14;22.05;;;3.17;;
67861;SDS011;54665;51.462;6.698;2023-02-04T07:31:49;16.55;;;3.40;;
67861;SDS011;54665;51.462;6.698;2023-02-04T07:34:20;19.63;;;3.55;;
67861;SDS011;54665;51.462;6.698;2023-02-04T07:37:07;21.63;;;3.20;;
67861;SDS011;54665;51.462;6.698;2023-02-04T07:39:36;26.00;;;4.38;;
67861;SDS011;54665;51.462;6.698;2023-02-04T07:42:05;17.60;;;3.47;;
67861;SDS011;54665;51.462;6.698;2023-02-04T07:44:48;19.25;;;3.88;;
67861;SDS011;54665;51.462;6.698;2023-02-04T07:47:23;19.98;;;3.40;;
67861;SDS011;54665;51.462;6.698;2023-02-04T07:50:07;19.50;;;3.50;;
67861;SDS011;54665;51.462;6.698;2023-02-04T07:52:39;15.15;;;3.40;;
67861;SDS011;54665;51.462;6.698;2023-02-04T07:55:21;19.30;;;3.80;;
67861;SDS011;54665;51.462;6.698;2023-02-04T07:57:58;19.00;;;3.67;;
67861;SDS011;54665;51.462;6.698;2023-02-04T08:00:35;22.10;;;4.15;;
67861;SDS011;54665;51.462;6.698;2023-02-04T08:03:49;20.17;;;3.90;;
67861;SDS011;54665;51.462;6.698;2023-02-04T08:06:20;19.35;;;3.95;;
67861;SDS011;54665;51.462;6.698;2023-02-04T08:09:14;24.00;;;4.18;;
67861;SDS011;54665;51.462;6.698;2023-02-04T08:11:51;19.95;;;4.75;;
67861;SDS011;54665;51.462;6.698;2023-02-04T08:14:33;26.17;;;5.03;;
67861;SDS011;54665;51.462;6.698;2023-02-04T08:17:07;17.13;;;4.10;;
67861;SDS011;54665;51.462;6.698;2023-02-04T08:19:33;26.67;;;4.63;;
67861;SDS011;54665;51.462;6.698;2023-02-04T08:22:16;22.98;;;4.35;;
67861;SDS011;54665;51.462;6.698;2023-02-04T08:24:45;20.00;;;4.00;;
67861;SDS011;54665;51.462;6.698;2023-02-04T08:27:25;26.52;;;4.40;;
67861;SDS011;54665;51.462;6.698;2023-02-04T08:30:00;21.93;;;4.70;;
67861;SDS011;54665;51.462;6.698;2023-02-04T08:33:00;21.63;;;4.38;;
67861;SDS011;54665;51.462;6.698;2023-02-04T08:35:35;18.02;;;4.05;;
67861;SDS011;54665;51.462;6.698;2023-02-04T08:38:00;21.67;;;4.47;;
67861;SDS011;54665;51.462;6.698;2023-02-04T08:41:03;15.18;;;4.20;;
67861;SDS011;54665;51.462;6.698;2023-02-04T08:43:39;22.58;;;4.30;;
67861;SDS011;54665;51.462;6.698;2023-02-04T08:49:03;22.97;;;4.30;;
67861;SDS011;54665;51.462;6.698;2023-02-04T08:51:53;19.95;;;3.97;;
67861;SDS011;54665;51.462;6.698;2023-02-04T08:54:34;21.42;;;4.15;;
67861;SDS011;54665;51.462;6.698;2023-02-04T08:57:12;16.23;;;3.65;;
67861;SDS011;54665;51.462;6.698;2023-02-04T09:00:00;23.13;;;3.92;;
67861;SDS011;54665;51.462;6.698;2023-02-04T09:02:42;19.87;;;4.00;;
67861;SDS011;54665;51.462;6.698;2023-02-04T09:05:32;20.67;;;3.92;;
67861;SDS011;54665;51.462;6.698;2023-02-04T09:08:17;18.65;;;3.78;;
67861;SDS011;54665;51.462;6.698;2023-02-04T09:11:04;19.98;;;3.40;;
67861;SDS011;54665;51.462;6.698;2023-02-04T09:13:35;16.95;;;3.40;;
67861;SDS011;54665;51.462;6.698;2023-02-04T09:16:09;23.47;;;3.97;;
67861;SDS011;54665;51.462;6.698;2023-02-04T09:18:52;24.02;;;3.78;;
67861;SDS011;54665;51.462;6.698;2023-02-04T09:21:35;22.88;;;3.83;;
67861;SDS011;54665;51.462;6.698;2023-02-04T09:27:32;21.35;;;3.15;;
67861;SDS011;54665;51.462;6.698;2023-02-04T09:30:13;19.30;;;3.17;;
67861;SDS011;54665;51.462;6.698;2023-02-04T09:32:46;22.17;;;5.20;;
67861;SDS011;54665;51.462;6.698;2023-02-04T09:35:20;19.13;;;3.13;;
67861;SDS011;54665;51.462;6.698;2023-02-04T09:37:58;26.83;;;4.25;;
67861;SDS011;54665;51.462;6.698;2023-02-04T09:40:46;20.52;;;3.33;;
67861;SDS011;54665;51.462;6.698;2023-02-04T09:43:28;22.00;;;3.37;;
67861;SDS011;54665;51.462;6.698;2023-02-04T09:46:21;19.25;;;3.00;;
67861;SDS011;54665;51.462;6.698;2023-02-04T09:49:07;18.25;;;2.95;;
67861;SDS011;54665;51.462;6.698;2023-02-04T09:54:34;26.38;;;3.28;;
67861;SDS011;54665;51.462;6.698;2023-02-04T09:57:20;20.63;;;3.00;;
67861;SDS011;54665;51.462;6.698;2023-02-04T09:59:50;22.40;;;2.97;;
67861;SDS011;54665;51.462;6.698;2023-02-04T10:02:40;28.17;;;4.35;;
67861;SDS011;54665;51.462;6.698;2023-02-04T10:10:58;16.43;;;3.00;;
67861;SDS011;54665;51.462;6.698;2023-02-04T10:13:30;21.25;;;3.33;;
67861;SDS011;54665;51.462;6.698;2023-02-04T10:16:00;20.23;;;3.90;;
67861;SDS011;54665;51.462;6.698;2023-02-04T10:18:44;21.38;;;3.47;;
67861;SDS011;54665;51.462;6.698;2023-02-04T10:21:26;19.98;;;3.08;;
67861;SDS011;54665;51.462;6.698;2023-02-04T10:24:13;15.97;;;3.03;;
67861;SDS011;54665;51.462;6.698;2023-02-04T10:26:52;24.42;;;3.55;;
67861;SDS011;54665;51.462;6.698;2023-02-04T10:29:58;22.25;;;3.65;;
67861;SDS011;54665;51.462;6.698;2023-02-04T10:35:24;26.13;;;4.80;;
67861;SDS011;54665;51.462;6.698;2023-02-04T10:38:04;23.53;;;4.90;;
67861;SDS011;54665;51.462;6.698;2023-02-04T10:43:53;23.92;;;5.05;;
67861;SDS011;54665;51.462;6.698;2023-02-04T10:46:57;25.10;;;5.88;;
67861;SDS011;54665;51.462;6.698;2023-02-04T10:49:33;22.52;;;5.28;;
67861;SDS011;54665;51.462;6.698;2023-02-04T10:51:59;27.07;;;5.60;;
67861;SDS011;54665;51.462;6.698;2023-02-04T10:54:28;20.75;;;5.57;;
67861;SDS011;54665;51.462;6.698;2023-02-04T10:57:25;23.38;;;5.20;;
67861;SDS011;54665;51.462;6.698;2023-02-04T10:59:59;27.40;;;5.32;;
67861;SDS011;54665;51.462;6.698;2023-02-04T11:05:31;27.73;;;5.78;;
67861;SDS011;54665;51.462;6.698;2023-02-04T11:11:04;21.42;;;5.32;;
67861;SDS011;54665;51.462;6.698;2023-02-04T11:22:20;28.58;;;5.47;;
67861;SDS011;54665;51.462;6.698;2023-02-04T11:31:28;28.80;;;5.60;;
67861;SDS011;54665;51.462;6.698;2023-02-04T11:39:40;24.10;;;6.00;;
67861;SDS011;54665;51.462;6.698;2023-02-04T11:42:21;29.20;;;6.40;;
67861;SDS011;54665;51.462;6.698;2023-02-04T11:45:28;28.67;;;5.80;;
67861;SDS011;54665;51.462;6.698;2023-02-04T11:48:00;22.33;;;5.35;;
67861;SDS011;54665;51.462;6.698;2023-02-04T11:50:59;29.77;;;6.05;;
67861;SDS011;54665;51.462;6.698;2023-02-04T11:53:58;23.30;;;5.55;;
67861;SDS011;54665;51.462;6.698;2023-02-04T11:56:38;25.23;;;5.50;;
67861;SDS011;54665;51.462;6.698;2023-02-04T11:59:20;23.47;;;6.17;;
67861;SDS011;54665;51.462;6.698;2023-02-04T12:02:14;23.77;;;5.82;;
67861;SDS011;54665;51.462;6.698;2023-02-04T12:05:13;30.45;;;6.00;;
67861;SDS011;54665;51.462;6.698;2023-02-04T12:07:54;26.73;;;6.20;;
67861;SDS011;54665;51.462;6.698;2023-02-04T12:10:46;24.02;;;6.03;;
67861;SDS011;54665;51.462;6.698;2023-02-04T12:13:21;23.57;;;5.10;;
67861;SDS011;54665;51.462;6.698;2023-02-04T12:16:05;24.63;;;3.97;;
67861;SDS011;54665;51.462;6.698;2023-02-04T12:18:56;21.00;;;3.53;;
67861;SDS011;54665;51.462;6.698;2023-02-04T12:21:51;19.30;;;4.13;;
67861;SDS011;54665;51.462;6.698;2023-02-04T12:24:22;18.40;;;3.17;;
67861;SDS011;54665;51.462;6.698;2023-02-04T12:27:02;22.27;;;4.03;;
67861;SDS011;54665;51.462;6.698;2023-02-04T12:29:41;17.05;;;3.70;;
67861;SDS011;54665;51.462;6.698;2023-02-04T12:32:34;16.95;;;3.42;;
67861;SDS011;54665;51.462;6.698;2023-02-04T12:35:03;17.45;;;4.05;;
67861;SDS011;54665;51.462;6.698;2023-02-04T12:37:41;20.52;;;5.05;;
67861;SDS011;54665;51.462;6.698;2023-02-04T12:40:33;23.40;;;4.60;;
67861;SDS011;54665;51.462;6.698;2023-02-04T12:43:15;22.33;;;4.22;;
67861;SDS011;54665;51.462;6.698;2023-02-04T12:46:11;19.65;;;4.35;;
67861;SDS011;54665;51.462;6.698;2023-02-04T12:48:48;16.80;;;3.30;;
67861;SDS011;54665;51.462;6.698;2023-02-04T12:51:25;14.57;;;3.30;;
67861;SDS011;54665;51.462;6.698;2023-02-04T12:54:16;20.00;;;2.90;;
67861;SDS011;54665;51.462;6.698;2023-02-04T12:56:41;18.55;;;3.22;;
67861;SDS011;54665;51.462;6.698;2023-02-04T12:59:31;16.23;;;3.13;;
67861;SDS011;54665;51.462;6.698;2023-02-04T13:02:18;16.55;;;2.70;;
67861;SDS011;54665;51.462;6.698;2023-02-04T13:05:05;18.80;;;3.00;;
67861;SDS011;54665;51.462;6.698;2023-02-04T13:07:53;18.63;;;3.00;;
67861;SDS011;54665;51.462;6.698;2023-02-04T13:10:22;13.98;;;2.45;;
67861;SDS011;54665;51.462;6.698;2023-02-04T13:12:53;19.15;;;2.67;;
67861;SDS011;54665;51.462;6.698;2023-02-04T13:15:19;14.32;;;2.88;;
67861;SDS011;54665;51.462;6.698;2023-02-04T13:17:53;16.15;;;2.45;;
67861;SDS011;54665;51.462;6.698;2023-02-04T13:20:21;16.23;;;2.10;;
67861;SDS011;54665;51.462;6.698;2023-02-04T13:22:59;14.77;;;1.88;;
67861;SDS011;54665;51.462;6.698;2023-02-04T13:25:36;14.63;;;1.90;;
67861;SDS011;54665;51.462;6.698;2023-02-04T13:28:26;13.02;;;1.90;;
67861;SDS011;54665;51.462;6.698;2023-02-04T13:31:40;15.15;;;2.00;;
67861;SDS011;54665;51.462;6.698;2023-02-04T13:34:10;12.75;;;1.67;;
67861;SDS011;54665;51.462;6.698;2023-02-04T13:36:45;12.98;;;1.77;;
67861;SDS011;54665;51.462;6.698;2023-02-04T13:39:14;19.20;;;2.07;;
67861;SDS011;54665;51.462;6.698;2023-02-04T13:41:39;11.73;;;1.92;;
67861;SDS011;54665;51.462;6.698;2023-02-04T13:44:14;14.30;;;2.15;;
67861;SDS011;54665;51.462;6.698;2023-02-04T13:46:50;18.73;;;2.10;;
67861;SDS011;54665;51.462;6.698;2023-02-04T13:49:57;16.38;;;3.03;;
67861;SDS011;54665;51.462;6.698;2023-02-04T13:52:42;17.83;;;2.58;;
67861;SDS011;54665;51.462;6.698;2023-02-04T13:55:23;13.25;;;2.20;;
67861;SDS011;54665;51.462;6.698;2023-02-04T13:58:06;12.23;;;2.08;;
67861;SDS011;54665;51.462;6.698;2023-02-04T14:00:32;15.27;;;2.00;;
67861;SDS011;54665;51.462;6.698;2023-02-04T14:03:03;17.38;;;3.20;;
67861;SDS011;54665;51.462;6.698;2023-02-04T14:05:36;13.00;;;2.05;;
67861;SDS011;54665;51.462;6.698;2023-02-04T14:08:04;17.60;;;1.90;;
67861;SDS011;54665;51.462;6.698;2023-02-04T14:11:05;16.13;;;2.45;;
67861;SDS011;54665;51.462;6.698;2023-02-04T14:13:42;19.38;;;2.97;;
67861;SDS011;54665;51.462;6.698;2023-02-04T14:16:40;15.52;;;2.03;;
67861;SDS011;54665;51.462;6.698;2023-02-04T14:19:06;31.43;;;7.90;;
67861;SDS011;54665;51.462;6.698;2023-02-04T14:21:31;14.53;;;3.03;;
67861;SDS011;54665;51.462;6.698;2023-02-04T14:24:05;15.93;;;3.00;;
67861;SDS011;54665;51.462;6.698;2023-02-04T14:26:31;20.67;;;3.70;;
67861;SDS011;54665;51.462;6.698;2023-02-04T14:29:04;12.50;;;2.50;;
67861;SDS011;54665;51.462;6.698;2023-02-04T14:31:50;22.33;;;3.63;;
67861;SDS011;54665;51.462;6.698;2023-02-04T14:34:16;16.02;;;3.88;;
67861;SDS011;54665;51.462;6.698;2023-02-04T14:36:50;14.73;;;2.50;;
67861;SDS011;54665;51.462;6.698;2023-02-04T14:39:34;17.90;;;2.25;;
67861;SDS011;54665;51.462;6.698;2023-02-04T14:42:17;17.77;;;2.40;;
67861;SDS011;54665;51.462;6.698;2023-02-04T14:44:46;18.05;;;3.47;;
67861;SDS011;54665;51.462;6.698;2023-02-04T14:47:13;15.33;;;2.70;;
67861;SDS011;54665;51.462;6.698;2023-02-04T14:49:45;21.40;;;2.28;;
67861;SDS011;54665;51.462;6.698;2023-02-04T14:52:16;17.00;;;2.47;;
67861;SDS011;54665;51.462;6.698;2023-02-04T14:54:47;33.88;;;4.43;;
67861;SDS011;54665;51.462;6.698;2023-02-04T14:57:13;17.63;;;2.40;;
67861;SDS011;54665;51.462;6.698;2023-02-04T14:59:41;17.20;;;2.78;;
67861;SDS011;54665;51.462;6.698;2023-02-04T15:02:10;18.27;;;3.00;;
67861;SDS011;54665;51.462;6.698;2023-02-04T15:04:46;20.45;;;2.88;;
67861;SDS011;54665;51.462;6.698;2023-02-04T15:07:15;20.77;;;2.97;;
67861;SDS011;54665;51.462;6.698;2023-02-04T15:09:44;20.42;;;3.63;;
67861;SDS011;54665;51.462;6.698;2023-02-04T15:12:19;19.10;;;2.50;;
67861;SDS011;54665;51.462;6.698;2023-02-04T15:14:44;22.08;;;2.67;;
67861;SDS011;54665;51.462;6.698;2023-02-04T15:17:10;20.63;;;3.17;;
67861;SDS011;54665;51.462;6.698;2023-02-04T15:19:35;15.70;;;2.80;;
67861;SDS011;54665;51.462;6.698;2023-02-04T15:22:04;19.37;;;3.00;;
67861;SDS011;54665;51.462;6.698;2023-02-04T15:24:32;23.98;;;3.47;;
67861;SDS011;54665;51.462;6.698;2023-02-04T15:27:07;21.33;;;3.03;;
67861;SDS011;54665;51.462;6.698;2023-02-04T15:29:38;22.13;;;3.38;;
67861;SDS011;54665;51.462;6.698;2023-02-04T15:32:04;18.98;;;2.85;;
67861;SDS011;54665;51.462;6.698;2023-02-04T15:34:37;21.05;;;3.03;;
67861;SDS011;54665;51.462;6.698;2023-02-04T15:37:04;24.33;;;3.30;;
67861;SDS011;54665;51.462;6.698;2023-02-04T15:39:48;17.40;;;3.30;;
67861;SDS011;54665;51.462;6.698;2023-02-04T15:42:14;16.60;;;3.35;;
67861;SDS011;54665;51.462;6.698;2023-02-04T15:44:39;24.53;;;4.77;;
67861;SDS011;54665;51.462;6.698;2023-02-04T15:47:08;19.10;;;3.13;;
67861;SDS011;54665;51.462;6.698;2023-02-04T15:49:33;20.17;;;4.03;;
67861;SDS011;54665;51.462;6.698;2023-02-04T15:52:02;19.73;;;3.20;;
67861;SDS011;54665;51.462;6.698;2023-02-04T15:54:28;22.05;;;3.30;;
67861;SDS011;54665;51.462;6.698;2023-02-04T15:57:04;20.73;;;4.03;;
67861;SDS011;54665;51.462;6.698;2023-02-04T15:59:39;17.73;;;3.65;;
67861;SDS011;54665;51.462;6.698;2023-02-04T16:02:13;24.20;;;5.20;;
67861;SDS011;54665;51.462;6.698;2023-02-04T16:04:57;21.85;;;4.50;;
67861;SDS011;54665;51.462;6.698;2023-02-04T16:07:40;24.17;;;4.68;;
67861;SDS011;54665;51.462;6.698;2023-02-04T16:10:20;20.60;;;4.30;;
67861;SDS011;54665;51.462;6.698;2023-02-04T16:12:55;14.77;;;3.45;;
67861;SDS011;54665;51.462;6.698;2023-02-04T16:15:38;22.67;;;5.80;;
67861;SDS011;54665;51.462;6.698;2023-02-04T16:18:04;20.20;;;3.47;;
67861;SDS011;54665;51.462;6.698;2023-02-04T16:20:35;17.15;;;2.90;;
67861;SDS011;54665;51.462;6.698;2023-02-04T16:23:01;25.37;;;4.17;;
67861;SDS011;54665;51.462;6.698;2023-02-04T16:25:29;18.67;;;3.67;;